sensor_id;sensor_type;location;lat;lon;timestamp;P1;durP1;ratioP1;P2;durP2;ratioP2
73023;SDS011;61199;47.526;8.538;2023-04-24T00:01:31;1.83;;;1.20;;
73023;SDS011;61199;47.526;8.538;2023-04-24T00:03:58;1.40;;;0.97;;
73023;SDS011;61199;47.526;8.538;2023-04-24T00:06:25;1.60;;;1.27;;
73023;SDS011;61199;47.526;8.538;2023-04-24T00:08:59;1.60;;;1.10;;
73023;SDS011;61199;47.526;8.538;2023-04-24T00:11:26;2.50;;;1.40;;
73023;SDS011;61199;47.526;8.538;2023-04-24T00:13:53;2.10;;;1.23;;
73023;SDS011;61199;47.526;8.538;2023-04-24T00:16:19;6.13;;;1.43;;
73023;SDS011;61199;47.526;8.538;2023-04-24T00:18:46;1.90;;;1.03;;
73023;SDS011;61199;47.526;8.538;2023-04-24T00:21:14;1.87;;;1.13;;
73023;SDS011;61199;47.526;8.538;2023-04-24T00:23:43;2.30;;;1.20;;
73023;SDS011;61199;47.526;8.538;2023-04-24T00:26:10;1.33;;;0.90;;
73023;SDS011;61199;47.526;8.538;2023-04-24T00:28:36;1.67;;;0.90;;
73023;SDS011;61199;47.526;8.538;2023-04-24T00:31:03;3.20;;;1.00;;
73023;SDS011;61199;47.526;8.538;2023-04-24T00:33:29;3.03;;;0.90;;
73023;SDS011;61199;47.526;8.538;2023-04-24T00:35:56;1.30;;;0.80;;
73023;SDS011;61199;47.526;8.538;2023-04-24T00:38:22;2.37;;;1.13;;
73023;SDS011;61199;47.526;8.538;2023-04-24T00:40:49;5.50;;;1.27;;
73023;SDS011;61199;47.526;8.538;2023-04-24T00:43:16;6.83;;;1.17;;
73023;SDS011;61199;47.526;8.538;2023-04-24T00:45:43;1.13;;;0.70;;
73023;SDS011;61199;47.526;8.538;2023-04-24T00:48:10;5.00;;;1.10;;
73023;SDS011;61199;47.526;8.538;2023-04-24T00:50:38;3.47;;;0.80;;
73023;SDS011;61199;47.526;8.538;2023-04-24T00:53:05;1.57;;;0.70;;
73023;SDS011;61199;47.526;8.538;2023-04-24T00:55:32;2.60;;;0.60;;
73023;SDS011;61199;47.526;8.538;2023-04-24T00:57:58;2.13;;;1.00;;
73023;SDS011;61199;47.526;8.538;2023-04-24T01:00:25;1.87;;;0.70;;
73023;SDS011;61199;47.526;8.538;2023-04-24T01:02:52;2.70;;;0.70;;
73023;SDS011;61199;47.526;8.538;2023-04-24T01:05:19;1.53;;;0.60;;
73023;SDS011;61199;47.526;8.538;2023-04-24T01:07:45;1.20;;;0.50;;
73023;SDS011;61199;47.526;8.538;2023-04-24T01:10:14;1.03;;;0.70;;
73023;SDS011;61199;47.526;8.538;2023-04-24T01:12:41;0.90;;;0.60;;
73023;SDS011;61199;47.526;8.538;2023-04-24T01:15:07;2.50;;;0.70;;
73023;SDS011;61199;47.526;8.538;2023-04-24T01:17:34;1.20;;;0.70;;
73023;SDS011;61199;47.526;8.538;2023-04-24T01:20:02;1.13;;;0.63;;
73023;SDS011;61199;47.526;8.538;2023-04-24T01:22:35;1.40;;;0.70;;
73023;SDS011;61199;47.526;8.538;2023-04-24T01:25:02;1.10;;;0.50;;
73023;SDS011;61199;47.526;8.538;2023-04-24T01:27:29;0.80;;;0.50;;
73023;SDS011;61199;47.526;8.538;2023-04-24T01:29:55;1.10;;;0.70;;
73023;SDS011;61199;47.526;8.538;2023-04-24T01:32:22;1.23;;;0.53;;
73023;SDS011;61199;47.526;8.538;2023-04-24T01:34:50;1.20;;;0.60;;
73023;SDS011;61199;47.526;8.538;2023-04-24T01:37:17;0.80;;;0.53;;
73023;SDS011;61199;47.526;8.538;2023-04-24T01:39:44;0.90;;;0.70;;
73023;SDS011;61199;47.526;8.538;2023-04-24T01:42:10;0.90;;;0.60;;
73023;SDS011;61199;47.526;8.538;2023-04-24T01:44:38;0.80;;;0.60;;
73023;SDS011;61199;47.526;8.538;2023-04-24T01:47:04;1.00;;;0.50;;
73023;SDS011;61199;47.526;8.538;2023-04-24T01:49:31;1.20;;;0.70;;
73023;SDS011;61199;47.526;8.538;2023-04-24T01:51:58;2.00;;;0.70;;
73023;SDS011;61199;47.526;8.538;2023-04-24T01:54:25;1.10;;;0.70;;
73023;SDS011;61199;47.526;8.538;2023-04-24T01:56:51;0.80;;;0.50;;
73023;SDS011;61199;47.526;8.538;2023-04-24T01:59:18;0.80;;;0.50;;
73023;SDS011;61199;47.526;8.538;2023-04-24T02:01:46;0.80;;;0.50;;
73023;SDS011;61199;47.526;8.538;2023-04-24T02:04:13;1.20;;;0.60;;
73023;SDS011;61199;47.526;8.538;2023-04-24T02:06:41;1.00;;;0.50;;
73023;SDS011;61199;47.526;8.538;2023-04-24T02:09:08;0.70;;;0.50;;
73023;SDS011;61199;47.526;8.538;2023-04-24T02:11:34;1.20;;;0.60;;
73023;SDS011;61199;47.526;8.538;2023-04-24T02:14:01;0.80;;;0.60;;
73023;SDS011;61199;47.526;8.538;2023-04-24T02:16:28;0.70;;;0.50;;
73023;SDS011;61199;47.526;8.538;2023-04-24T02:18:58;0.90;;;0.60;;
73023;SDS011;61199;47.526;8.538;2023-04-24T02:21:24;0.80;;;0.57;;
73023;SDS011;61199;47.526;8.538;2023-04-24T02:23:51;0.83;;;0.50;;
73023;SDS011;61199;47.526;8.538;2023-04-24T02:26:17;0.80;;;0.50;;
73023;SDS011;61199;47.526;8.538;2023-04-24T02:28:44;5.70;;;0.60;;
73023;SDS011;61199;47.526;8.538;2023-04-24T02:31:10;1.83;;;0.50;;
73023;SDS011;61199;47.526;8.538;2023-04-24T02:33:37;1.03;;;0.60;;
73023;SDS011;61199;47.526;8.538;2023-04-24T02:36:03;1.37;;;0.60;;
73023;SDS011;61199;47.526;8.538;2023-04-24T02:38:30;1.57;;;0.60;;
73023;SDS011;61199;47.526;8.538;2023-04-24T02:40:56;0.90;;;0.60;;
73023;SDS011;61199;47.526;8.538;2023-04-24T02:43:23;0.90;;;0.60;;
73023;SDS011;61199;47.526;8.538;2023-04-24T02:45:49;1.33;;;0.70;;
73023;SDS011;61199;47.526;8.538;2023-04-24T02:48:15;1.20;;;0.60;;
73023;SDS011;61199;47.526;8.538;2023-04-24T02:50:43;1.23;;;0.87;;
73023;SDS011;61199;47.526;8.538;2023-04-24T02:53:09;1.40;;;0.60;;
73023;SDS011;61199;47.526;8.538;2023-04-24T02:55:36;0.80;;;0.50;;
73023;SDS011;61199;47.526;8.538;2023-04-24T02:58:02;1.53;;;0.50;;
73023;SDS011;61199;47.526;8.538;2023-04-24T03:00:28;3.17;;;0.70;;
73023;SDS011;61199;47.526;8.538;2023-04-24T03:02:55;1.97;;;0.70;;
73023;SDS011;61199;47.526;8.538;2023-04-24T03:05:22;1.70;;;0.73;;
73023;SDS011;61199;47.526;8.538;2023-04-24T03:07:48;0.70;;;0.50;;
73023;SDS011;61199;47.526;8.538;2023-04-24T03:10:15;0.80;;;0.60;;
73023;SDS011;61199;47.526;8.538;2023-04-24T03:12:42;0.70;;;0.50;;
73023;SDS011;61199;47.526;8.538;2023-04-24T03:15:08;1.00;;;0.60;;
73023;SDS011;61199;47.526;8.538;2023-04-24T03:17:35;2.80;;;0.60;;
73023;SDS011;61199;47.526;8.538;2023-04-24T03:20:03;1.33;;;0.53;;
73023;SDS011;61199;47.526;8.538;2023-04-24T03:22:31;2.03;;;0.60;;
73023;SDS011;61199;47.526;8.538;2023-04-24T03:24:58;1.20;;;0.57;;
73023;SDS011;61199;47.526;8.538;2023-04-24T03:27:25;1.57;;;0.50;;
73023;SDS011;61199;47.526;8.538;2023-04-24T03:29:52;0.70;;;0.50;;
73023;SDS011;61199;47.526;8.538;2023-04-24T03:32:21;1.50;;;0.57;;
73023;SDS011;61199;47.526;8.538;2023-04-24T03:34:48;2.07;;;0.50;;
73023;SDS011;61199;47.526;8.538;2023-04-24T03:37:16;2.70;;;0.50;;
73023;SDS011;61199;47.526;8.538;2023-04-24T03:39:43;1.00;;;0.53;;
73023;SDS011;61199;47.526;8.538;2023-04-24T03:42:09;1.37;;;0.53;;
73023;SDS011;61199;47.526;8.538;2023-04-24T03:44:36;1.00;;;0.50;;
73023;SDS011;61199;47.526;8.538;2023-04-24T03:47:03;1.00;;;0.57;;
73023;SDS011;61199;47.526;8.538;2023-04-24T03:49:29;2.00;;;0.67;;
73023;SDS011;61199;47.526;8.538;2023-04-24T03:51:56;0.97;;;0.50;;
73023;SDS011;61199;47.526;8.538;2023-04-24T03:54:22;0.90;;;0.50;;
73023;SDS011;61199;47.526;8.538;2023-04-24T03:56:48;1.73;;;0.50;;
73023;SDS011;61199;47.526;8.538;2023-04-24T03:59:15;0.70;;;0.50;;
73023;SDS011;61199;47.526;8.538;2023-04-24T04:01:41;2.20;;;0.60;;
73023;SDS011;61199;47.526;8.538;2023-04-24T04:04:09;0.80;;;0.60;;
73023;SDS011;61199;47.526;8.538;2023-04-24T04:06:36;1.00;;;0.60;;
73023;SDS011;61199;47.526;8.538;2023-04-24T04:09:02;0.80;;;0.50;;
73023;SDS011;61199;47.526;8.538;2023-04-24T04:11:29;1.10;;;0.60;;
73023;SDS011;61199;47.526;8.538;2023-04-24T04:13:56;4.00;;;0.60;;
73023;SDS011;61199;47.526;8.538;2023-04-24T04:16:22;1.43;;;0.60;;
73023;SDS011;61199;47.526;8.538;2023-04-24T04:18:49;1.10;;;0.60;;
73023;SDS011;61199;47.526;8.538;2023-04-24T04:21:15;2.10;;;0.70;;
73023;SDS011;61199;47.526;8.538;2023-04-24T04:23:42;0.80;;;0.50;;
73023;SDS011;61199;47.526;8.538;2023-04-24T04:26:08;1.10;;;0.63;;
73023;SDS011;61199;47.526;8.538;2023-04-24T04:28:35;5.43;;;0.70;;
73023;SDS011;61199;47.526;8.538;2023-04-24T04:31:01;0.80;;;0.50;;
73023;SDS011;61199;47.526;8.538;2023-04-24T04:33:28;1.10;;;0.50;;
73023;SDS011;61199;47.526;8.538;2023-04-24T04:35:54;1.73;;;0.60;;
73023;SDS011;61199;47.526;8.538;2023-04-24T04:38:22;0.80;;;0.53;;
73023;SDS011;61199;47.526;8.538;2023-04-24T04:40:49;1.47;;;0.70;;
73023;SDS011;61199;47.526;8.538;2023-04-24T04:43:15;0.90;;;0.60;;
73023;SDS011;61199;47.526;8.538;2023-04-24T04:45:42;0.90;;;0.60;;
73023;SDS011;61199;47.526;8.538;2023-04-24T04:48:11;1.80;;;0.70;;
73023;SDS011;61199;47.526;8.538;2023-04-24T04:50:39;2.47;;;0.80;;
73023;SDS011;61199;47.526;8.538;2023-04-24T04:53:06;5.23;;;1.00;;
73023;SDS011;61199;47.526;8.538;2023-04-24T04:55:33;1.10;;;1.00;;
73023;SDS011;61199;47.526;8.538;2023-04-24T04:57:59;1.67;;;0.90;;
73023;SDS011;61199;47.526;8.538;2023-04-24T05:00:26;1.30;;;0.90;;
73023;SDS011;61199;47.526;8.538;2023-04-24T05:02:53;1.83;;;1.00;;
73023;SDS011;61199;47.526;8.538;2023-04-24T05:05:22;1.33;;;1.13;;
73023;SDS011;61199;47.526;8.538;2023-04-24T05:07:49;1.40;;;0.83;;
73023;SDS011;61199;47.526;8.538;2023-04-24T05:10:15;4.30;;;0.70;;
73023;SDS011;61199;47.526;8.538;2023-04-24T05:12:41;5.00;;;1.17;;
73023;SDS011;61199;47.526;8.538;2023-04-24T05:15:11;1.83;;;1.00;;
73023;SDS011;61199;47.526;8.538;2023-04-24T05:17:37;4.53;;;1.30;;
73023;SDS011;61199;47.526;8.538;2023-04-24T05:20:06;2.87;;;1.23;;
73023;SDS011;61199;47.526;8.538;2023-04-24T05:22:33;2.20;;;1.03;;
73023;SDS011;61199;47.526;8.538;2023-04-24T05:24:59;1.67;;;1.10;;
73023;SDS011;61199;47.526;8.538;2023-04-24T05:27:26;1.67;;;1.20;;
73023;SDS011;61199;47.526;8.538;2023-04-24T05:29:52;0.90;;;0.70;;
73023;SDS011;61199;47.526;8.538;2023-04-24T05:32:18;2.40;;;1.23;;
73023;SDS011;61199;47.526;8.538;2023-04-24T05:34:45;1.53;;;1.00;;
73023;SDS011;61199;47.526;8.538;2023-04-24T05:37:11;2.03;;;1.27;;
73023;SDS011;61199;47.526;8.538;2023-04-24T05:39:37;2.87;;;1.60;;
73023;SDS011;61199;47.526;8.538;2023-04-24T05:42:04;4.40;;;1.60;;
73023;SDS011;61199;47.526;8.538;2023-04-24T05:44:30;3.87;;;1.50;;
73023;SDS011;61199;47.526;8.538;2023-04-24T05:46:57;3.43;;;1.87;;
73023;SDS011;61199;47.526;8.538;2023-04-24T05:49:23;2.47;;;1.47;;
73023;SDS011;61199;47.526;8.538;2023-04-24T05:51:49;2.60;;;1.60;;
73023;SDS011;61199;47.526;8.538;2023-04-24T05:54:16;6.90;;;1.80;;
73023;SDS011;61199;47.526;8.538;2023-04-24T05:56:42;2.73;;;1.80;;
73023;SDS011;61199;47.526;8.538;2023-04-24T05:59:09;3.47;;;2.20;;
73023;SDS011;61199;47.526;8.538;2023-04-24T06:01:35;4.47;;;2.23;;
73023;SDS011;61199;47.526;8.538;2023-04-24T06:04:02;3.23;;;2.60;;
73023;SDS011;61199;47.526;8.538;2023-04-24T06:06:29;4.93;;;2.60;;
73023;SDS011;61199;47.526;8.538;2023-04-24T06:08:56;6.00;;;2.20;;
73023;SDS011;61199;47.526;8.538;2023-04-24T06:11:23;6.43;;;2.37;;
73023;SDS011;61199;47.526;8.538;2023-04-24T06:13:49;5.17;;;2.63;;
73023;SDS011;61199;47.526;8.538;2023-04-24T06:16:16;4.10;;;2.60;;
73023;SDS011;61199;47.526;8.538;2023-04-24T06:18:42;4.53;;;2.63;;
73023;SDS011;61199;47.526;8.538;2023-04-24T06:21:09;7.20;;;2.53;;
73023;SDS011;61199;47.526;8.538;2023-04-24T06:23:35;5.60;;;2.37;;
73023;SDS011;61199;47.526;8.538;2023-04-24T06:26:02;4.47;;;3.10;;
73023;SDS011;61199;47.526;8.538;2023-04-24T06:28:28;6.77;;;2.70;;
73023;SDS011;61199;47.526;8.538;2023-04-24T06:30:54;4.60;;;3.00;;
73023;SDS011;61199;47.526;8.538;2023-04-24T06:33:21;8.60;;;3.20;;
73023;SDS011;61199;47.526;8.538;2023-04-24T06:35:49;6.77;;;2.80;;
73023;SDS011;61199;47.526;8.538;2023-04-24T06:38:15;3.50;;;2.73;;
73023;SDS011;61199;47.526;8.538;2023-04-24T06:40:42;3.77;;;2.83;;
73023;SDS011;61199;47.526;8.538;2023-04-24T06:43:09;5.50;;;3.00;;
73023;SDS011;61199;47.526;8.538;2023-04-24T06:45:37;4.60;;;2.90;;
73023;SDS011;61199;47.526;8.538;2023-04-24T06:48:05;4.20;;;2.87;;
73023;SDS011;61199;47.526;8.538;2023-04-24T06:50:32;5.27;;;2.77;;
73023;SDS011;61199;47.526;8.538;2023-04-24T06:52:58;8.90;;;3.07;;
73023;SDS011;61199;47.526;8.538;2023-04-24T06:55:24;4.20;;;2.70;;
73023;SDS011;61199;47.526;8.538;2023-04-24T06:57:51;3.17;;;2.53;;
73023;SDS011;61199;47.526;8.538;2023-04-24T07:00:17;5.10;;;2.80;;
73023;SDS011;61199;47.526;8.538;2023-04-24T07:02:44;3.00;;;2.40;;
73023;SDS011;61199;47.526;8.538;2023-04-24T07:05:11;2.77;;;2.40;;
73023;SDS011;61199;47.526;8.538;2023-04-24T07:07:38;6.17;;;2.70;;
73023;SDS011;61199;47.526;8.538;2023-04-24T07:10:06;6.00;;;3.07;;
73023;SDS011;61199;47.526;8.538;2023-04-24T07:12:34;4.53;;;2.43;;
73023;SDS011;61199;47.526;8.538;2023-04-24T07:15:01;4.63;;;2.60;;
73023;SDS011;61199;47.526;8.538;2023-04-24T07:17:28;7.30;;;2.60;;
73023;SDS011;61199;47.526;8.538;2023-04-24T07:19:54;3.60;;;2.27;;
73023;SDS011;61199;47.526;8.538;2023-04-24T07:22:21;7.20;;;2.20;;
73023;SDS011;61199;47.526;8.538;2023-04-24T07:24:47;4.67;;;2.60;;
73023;SDS011;61199;47.526;8.538;2023-04-24T07:27:14;4.63;;;2.33;;
73023;SDS011;61199;47.526;8.538;2023-04-24T07:29:41;4.00;;;2.30;;
73023;SDS011;61199;47.526;8.538;2023-04-24T07:32:08;4.03;;;1.90;;
73023;SDS011;61199;47.526;8.538;2023-04-24T07:34:35;6.77;;;2.50;;
73023;SDS011;61199;47.526;8.538;2023-04-24T07:37:01;4.30;;;2.53;;
73023;SDS011;61199;47.526;8.538;2023-04-24T07:39:28;3.67;;;2.23;;
73023;SDS011;61199;47.526;8.538;2023-04-24T07:41:55;7.53;;;2.53;;
73023;SDS011;61199;47.526;8.538;2023-04-24T07:44:21;4.50;;;2.40;;
73023;SDS011;61199;47.526;8.538;2023-04-24T07:46:48;7.30;;;2.53;;
73023;SDS011;61199;47.526;8.538;2023-04-24T07:49:14;9.50;;;2.50;;
73023;SDS011;61199;47.526;8.538;2023-04-24T07:51:44;7.70;;;2.20;;
73023;SDS011;61199;47.526;8.538;2023-04-24T07:54:11;3.67;;;2.30;;
73023;SDS011;61199;47.526;8.538;2023-04-24T07:56:37;8.70;;;2.53;;
73023;SDS011;61199;47.526;8.538;2023-04-24T07:59:05;5.00;;;2.50;;
73023;SDS011;61199;47.526;8.538;2023-04-24T08:01:32;3.63;;;2.33;;
73023;SDS011;61199;47.526;8.538;2023-04-24T08:03:58;5.20;;;2.57;;
73023;SDS011;61199;47.526;8.538;2023-04-24T08:06:25;7.07;;;2.20;;
73023;SDS011;61199;47.526;8.538;2023-04-24T08:08:56;7.33;;;2.90;;
73023;SDS011;61199;47.526;8.538;2023-04-24T08:11:23;6.07;;;2.77;;
73023;SDS011;61199;47.526;8.538;2023-04-24T08:13:50;8.13;;;2.67;;
73023;SDS011;61199;47.526;8.538;2023-04-24T08:16:16;4.30;;;2.60;;
73023;SDS011;61199;47.526;8.538;2023-04-24T08:18:43;4.70;;;2.43;;
73023;SDS011;61199;47.526;8.538;2023-04-24T08:21:09;8.40;;;3.13;;
73023;SDS011;61199;47.526;8.538;2023-04-24T08:23:37;5.30;;;2.60;;
73023;SDS011;61199;47.526;8.538;2023-04-24T08:26:04;8.03;;;3.00;;
73023;SDS011;61199;47.526;8.538;2023-04-24T08:28:31;4.90;;;3.30;;
73023;SDS011;61199;47.526;8.538;2023-04-24T08:30:57;4.67;;;2.77;;
73023;SDS011;61199;47.526;8.538;2023-04-24T08:33:23;24.63;;;3.60;;
73023;SDS011;61199;47.526;8.538;2023-04-24T08:35:50;8.70;;;3.67;;
73023;SDS011;61199;47.526;8.538;2023-04-24T08:38:16;5.30;;;2.77;;
73023;SDS011;61199;47.526;8.538;2023-04-24T08:40:43;7.70;;;3.07;;
73023;SDS011;61199;47.526;8.538;2023-04-24T08:43:12;7.57;;;2.70;;
73023;SDS011;61199;47.526;8.538;2023-04-24T08:45:39;7.03;;;3.40;;
73023;SDS011;61199;47.526;8.538;2023-04-24T08:48:06;11.20;;;3.13;;
73023;SDS011;61199;47.526;8.538;2023-04-24T08:50:51;17.80;;;3.37;;
73023;SDS011;61199;47.526;8.538;2023-04-24T08:53:18;7.90;;;2.83;;
73023;SDS011;61199;47.526;8.538;2023-04-24T08:55:46;15.80;;;2.87;;
73023;SDS011;61199;47.526;8.538;2023-04-24T08:58:14;8.13;;;3.40;;
73023;SDS011;61199;47.526;8.538;2023-04-24T09:00:42;11.20;;;3.03;;
73023;SDS011;61199;47.526;8.538;2023-04-24T09:03:15;8.47;;;2.93;;
73023;SDS011;61199;47.526;8.538;2023-04-24T09:05:44;6.50;;;2.90;;
73023;SDS011;61199;47.526;8.538;2023-04-24T09:08:13;5.83;;;2.60;;
73023;SDS011;61199;47.526;8.538;2023-04-24T09:10:40;18.50;;;2.80;;
73023;SDS011;61199;47.526;8.538;2023-04-24T09:13:07;9.43;;;2.80;;
73023;SDS011;61199;47.526;8.538;2023-04-24T09:15:36;8.70;;;3.47;;
73023;SDS011;61199;47.526;8.538;2023-04-24T09:18:06;7.10;;;3.07;;
73023;SDS011;61199;47.526;8.538;2023-04-24T09:20:33;6.33;;;3.00;;
73023;SDS011;61199;47.526;8.538;2023-04-24T09:23:02;8.50;;;3.00;;
73023;SDS011;61199;47.526;8.538;2023-04-24T09:25:31;6.13;;;2.23;;
73023;SDS011;61199;47.526;8.538;2023-04-24T09:28:03;6.90;;;3.07;;
73023;SDS011;61199;47.526;8.538;2023-04-24T09:30:30;6.97;;;2.57;;
73023;SDS011;61199;47.526;8.538;2023-04-24T09:33:10;12.07;;;2.90;;
73023;SDS011;61199;47.526;8.538;2023-04-24T09:35:42;7.33;;;3.07;;
73023;SDS011;61199;47.526;8.538;2023-04-24T09:38:09;6.80;;;3.03;;
73023;SDS011;61199;47.526;8.538;2023-04-24T09:40:36;6.60;;;2.50;;
73023;SDS011;61199;47.526;8.538;2023-04-24T09:43:09;10.23;;;3.23;;
73023;SDS011;61199;47.526;8.538;2023-04-24T09:45:37;9.23;;;2.90;;
73023;SDS011;61199;47.526;8.538;2023-04-24T09:48:08;6.83;;;2.50;;
73023;SDS011;61199;47.526;8.538;2023-04-24T09:50:36;5.00;;;2.80;;
73023;SDS011;61199;47.526;8.538;2023-04-24T09:53:03;3.43;;;2.47;;
73023;SDS011;61199;47.526;8.538;2023-04-24T09:55:31;9.03;;;2.57;;
73023;SDS011;61199;47.526;8.538;2023-04-24T09:57:58;9.60;;;3.00;;
73023;SDS011;61199;47.526;8.538;2023-04-24T10:00:32;7.90;;;2.63;;
73023;SDS011;61199;47.526;8.538;2023-04-24T10:02:59;9.23;;;3.00;;
73023;SDS011;61199;47.526;8.538;2023-04-24T10:05:36;11.13;;;3.93;;
73023;SDS011;61199;47.526;8.538;2023-04-24T10:08:05;6.13;;;2.87;;
73023;SDS011;61199;47.526;8.538;2023-04-24T10:10:35;6.63;;;3.07;;
73023;SDS011;61199;47.526;8.538;2023-04-24T10:13:04;5.20;;;2.57;;
73023;SDS011;61199;47.526;8.538;2023-04-24T10:15:31;8.83;;;3.20;;
73023;SDS011;61199;47.526;8.538;2023-04-24T10:17:58;4.77;;;2.87;;
73023;SDS011;61199;47.526;8.538;2023-04-24T10:20:27;14.23;;;3.00;;
73023;SDS011;61199;47.526;8.538;2023-04-24T10:22:58;5.97;;;2.13;;
73023;SDS011;61199;47.526;8.538;2023-04-24T10:25:27;4.00;;;2.40;;
73023;SDS011;61199;47.526;8.538;2023-04-24T10:27:56;6.77;;;2.20;;
73023;SDS011;61199;47.526;8.538;2023-04-24T10:30:26;9.30;;;2.70;;
73023;SDS011;61199;47.526;8.538;2023-04-24T10:32:54;5.27;;;2.50;;
73023;SDS011;61199;47.526;8.538;2023-04-24T10:35:22;5.07;;;2.20;;
73023;SDS011;61199;47.526;8.538;2023-04-24T10:37:56;5.93;;;2.77;;
73023;SDS011;61199;47.526;8.538;2023-04-24T10:40:32;7.77;;;2.60;;
73023;SDS011;61199;47.526;8.538;2023-04-24T10:43:03;3.70;;;2.00;;
73023;SDS011;61199;47.526;8.538;2023-04-24T10:45:35;7.93;;;2.80;;
73023;SDS011;61199;47.526;8.538;2023-04-24T10:48:03;12.03;;;2.60;;
73023;SDS011;61199;47.526;8.538;2023-04-24T10:50:53;6.03;;;2.40;;
73023;SDS011;61199;47.526;8.538;2023-04-24T10:53:20;6.53;;;2.87;;
73023;SDS011;61199;47.526;8.538;2023-04-24T10:55:50;9.03;;;2.57;;
73023;SDS011;61199;47.526;8.538;2023-04-24T10:58:21;7.50;;;2.53;;
73023;SDS011;61199;47.526;8.538;2023-04-24T11:00:56;5.40;;;2.80;;
73023;SDS011;61199;47.526;8.538;2023-04-24T11:03:25;8.73;;;3.17;;
73023;SDS011;61199;47.526;8.538;2023-04-24T11:06:00;5.27;;;2.50;;
73023;SDS011;61199;47.526;8.538;2023-04-24T11:08:30;12.60;;;2.83;;
73023;SDS011;61199;47.526;8.538;2023-04-24T11:10:59;6.70;;;2.40;;
73023;SDS011;61199;47.526;8.538;2023-04-24T11:24:49;4.97;;;2.43;;
73023;SDS011;61199;47.526;8.538;2023-04-24T11:27:20;9.03;;;2.70;;
73023;SDS011;61199;47.526;8.538;2023-04-24T11:32:28;5.30;;;3.20;;
73023;SDS011;61199;47.526;8.538;2023-04-24T11:35:07;10.63;;;2.70;;
73023;SDS011;61199;47.526;8.538;2023-04-24T11:37:45;6.17;;;2.23;;
73023;SDS011;61199;47.526;8.538;2023-04-24T11:40:35;5.60;;;2.40;;
73023;SDS011;61199;47.526;8.538;2023-04-24T11:43:04;7.07;;;2.70;;
73023;SDS011;61199;47.526;8.538;2023-04-24T11:45:33;8.33;;;2.30;;
73023;SDS011;61199;47.526;8.538;2023-04-24T11:47:59;4.10;;;2.13;;
73023;SDS011;61199;47.526;8.538;2023-04-24T11:50:26;2.97;;;2.20;;
73023;SDS011;61199;47.526;8.538;2023-04-24T11:52:53;9.57;;;2.67;;
73023;SDS011;61199;47.526;8.538;2023-04-24T11:57:49;9.50;;;2.50;;
73023;SDS011;61199;47.526;8.538;2023-04-24T12:00:20;7.43;;;2.50;;
73023;SDS011;61199;47.526;8.538;2023-04-24T12:02:49;6.90;;;2.40;;
73023;SDS011;61199;47.526;8.538;2023-04-24T12:05:20;7.50;;;2.30;;
73023;SDS011;61199;47.526;8.538;2023-04-24T12:07:47;5.90;;;3.37;;
73023;SDS011;61199;47.526;8.538;2023-04-24T12:10:14;7.60;;;2.40;;
73023;SDS011;61199;47.526;8.538;2023-04-24T12:12:41;4.43;;;2.20;;
73023;SDS011;61199;47.526;8.538;2023-04-24T12:15:08;5.83;;;2.20;;
73023;SDS011;61199;47.526;8.538;2023-04-24T12:17:35;8.67;;;2.50;;
73023;SDS011;61199;47.526;8.538;2023-04-24T12:20:04;6.67;;;2.70;;
73023;SDS011;61199;47.526;8.538;2023-04-24T12:22:52;6.00;;;2.50;;
73023;SDS011;61199;47.526;8.538;2023-04-24T12:25:22;3.93;;;2.37;;
73023;SDS011;61199;47.526;8.538;2023-04-24T12:30:29;5.33;;;2.43;;
73023;SDS011;61199;47.526;8.538;2023-04-24T12:32:57;5.57;;;2.70;;
73023;SDS011;61199;47.526;8.538;2023-04-24T12:35:25;6.13;;;2.87;;
73023;SDS011;61199;47.526;8.538;2023-04-24T12:37:54;9.63;;;2.83;;
73023;SDS011;61199;47.526;8.538;2023-04-24T12:40:21;4.87;;;2.70;;
73023;SDS011;61199;47.526;8.538;2023-04-24T12:42:48;4.00;;;2.50;;
73023;SDS011;61199;47.526;8.538;2023-04-24T12:45:17;4.83;;;2.87;;
73023;SDS011;61199;47.526;8.538;2023-04-24T12:47:45;6.80;;;2.83;;
73023;SDS011;61199;47.526;8.538;2023-04-24T12:50:13;13.77;;;2.70;;
73023;SDS011;61199;47.526;8.538;2023-04-24T12:52:41;5.67;;;2.57;;
73023;SDS011;61199;47.526;8.538;2023-04-24T12:55:08;5.87;;;2.50;;
73023;SDS011;61199;47.526;8.538;2023-04-24T12:57:35;10.23;;;2.43;;
73023;SDS011;61199;47.526;8.538;2023-04-24T13:00:03;5.30;;;2.67;;
73023;SDS011;61199;47.526;8.538;2023-04-24T13:02:32;6.57;;;2.80;;
73023;SDS011;61199;47.526;8.538;2023-04-24T13:04:59;7.40;;;2.47;;
73023;SDS011;61199;47.526;8.538;2023-04-24T13:07:26;7.07;;;2.63;;
73023;SDS011;61199;47.526;8.538;2023-04-24T13:09:54;5.43;;;2.30;;
73023;SDS011;61199;47.526;8.538;2023-04-24T13:12:21;10.73;;;2.13;;
73023;SDS011;61199;47.526;8.538;2023-04-24T13:14:49;5.30;;;2.27;;
73023;SDS011;61199;47.526;8.538;2023-04-24T13:17:16;6.53;;;2.50;;
73023;SDS011;61199;47.526;8.538;2023-04-24T13:19:43;5.80;;;2.43;;
73023;SDS011;61199;47.526;8.538;2023-04-24T13:22:11;5.77;;;2.80;;
73023;SDS011;61199;47.526;8.538;2023-04-24T13:24:38;3.70;;;2.40;;
73023;SDS011;61199;47.526;8.538;2023-04-24T13:27:07;6.13;;;2.87;;
73023;SDS011;61199;47.526;8.538;2023-04-24T13:29:33;5.93;;;2.23;;
73023;SDS011;61199;47.526;8.538;2023-04-24T13:32:00;10.97;;;2.60;;
73023;SDS011;61199;47.526;8.538;2023-04-24T13:34:26;6.20;;;2.50;;
73023;SDS011;61199;47.526;8.538;2023-04-24T13:36:54;5.03;;;2.60;;
73023;SDS011;61199;47.526;8.538;2023-04-24T13:39:22;4.80;;;2.30;;
73023;SDS011;61199;47.526;8.538;2023-04-24T13:41:49;5.10;;;2.60;;
73023;SDS011;61199;47.526;8.538;2023-04-24T13:44:16;4.27;;;2.60;;
73023;SDS011;61199;47.526;8.538;2023-04-24T13:46:45;8.80;;;2.60;;
73023;SDS011;61199;47.526;8.538;2023-04-24T13:49:13;6.30;;;2.57;;
73023;SDS011;61199;47.526;8.538;2023-04-24T13:51:40;5.97;;;2.20;;
73023;SDS011;61199;47.526;8.538;2023-04-24T13:54:07;9.03;;;3.10;;
73023;SDS011;61199;47.526;8.538;2023-04-24T13:56:34;5.60;;;2.50;;
73023;SDS011;61199;47.526;8.538;2023-04-24T13:59:00;9.50;;;2.83;;
73023;SDS011;61199;47.526;8.538;2023-04-24T14:01:27;7.90;;;2.93;;
73023;SDS011;61199;47.526;8.538;2023-04-24T14:03:54;3.30;;;2.33;;
73023;SDS011;61199;47.526;8.538;2023-04-24T14:06:22;7.00;;;2.70;;
73023;SDS011;61199;47.526;8.538;2023-04-24T14:08:49;8.33;;;3.03;;
73023;SDS011;61199;47.526;8.538;2023-04-24T14:11:17;9.10;;;2.70;;
73023;SDS011;61199;47.526;8.538;2023-04-24T14:13:44;4.70;;;2.47;;
73023;SDS011;61199;47.526;8.538;2023-04-24T14:16:12;5.80;;;2.73;;
73023;SDS011;61199;47.526;8.538;2023-04-24T14:18:38;11.33;;;2.93;;
73023;SDS011;61199;47.526;8.538;2023-04-24T14:21:05;3.87;;;2.70;;
73023;SDS011;61199;47.526;8.538;2023-04-24T14:23:31;5.33;;;2.70;;
73023;SDS011;61199;47.526;8.538;2023-04-24T14:25:58;6.03;;;2.50;;
73023;SDS011;61199;47.526;8.538;2023-04-24T14:28:25;5.40;;;2.80;;
73023;SDS011;61199;47.526;8.538;2023-04-24T14:30:52;5.83;;;2.17;;
73023;SDS011;61199;47.526;8.538;2023-04-24T14:33:19;5.80;;;2.50;;
73023;SDS011;61199;47.526;8.538;2023-04-24T14:35:46;4.93;;;2.50;;
73023;SDS011;61199;47.526;8.538;2023-04-24T14:38:12;6.77;;;2.10;;
73023;SDS011;61199;47.526;8.538;2023-04-24T14:40:39;5.60;;;2.43;;
73023;SDS011;61199;47.526;8.538;2023-04-24T14:43:09;5.80;;;2.40;;
73023;SDS011;61199;47.526;8.538;2023-04-24T14:45:36;5.63;;;2.27;;
73023;SDS011;61199;47.526;8.538;2023-04-24T14:48:03;3.63;;;2.40;;
73023;SDS011;61199;47.526;8.538;2023-04-24T14:50:29;4.33;;;2.20;;
73023;SDS011;61199;47.526;8.538;2023-04-24T14:52:56;4.23;;;2.53;;
73023;SDS011;61199;47.526;8.538;2023-04-24T14:55:24;12.37;;;2.70;;
73023;SDS011;61199;47.526;8.538;2023-04-24T14:57:52;6.00;;;2.40;;
73023;SDS011;61199;47.526;8.538;2023-04-24T15:00:19;22.63;;;3.13;;
73023;SDS011;61199;47.526;8.538;2023-04-24T15:02:46;8.70;;;2.50;;
73023;SDS011;61199;47.526;8.538;2023-04-24T15:05:13;8.83;;;2.30;;
73023;SDS011;61199;47.526;8.538;2023-04-24T15:07:40;3.37;;;2.20;;
73023;SDS011;61199;47.526;8.538;2023-04-24T15:10:07;5.53;;;2.70;;